createdAt,value
2022-07-30T00:01:00.886Z,23.60
2022-07-30T00:06:04.362Z,23.50
2022-07-30T00:11:09.508Z,23.40
2022-07-30T00:16:13.466Z,23.40
2022-07-30T00:21:29.143Z,23.30
2022-07-30T00:26:41.445Z,23.20
2022-07-30T00:31:44.804Z,23.10
2022-07-30T00:36:48.229Z,23.10
2022-07-30T00:41:58.404Z,23.00
2022-07-30T00:47:02.131Z,23.00
2022-07-30T00:52:06.335Z,23.00
2022-07-30T00:57:11.314Z,22.90
2022-07-30T01:02:14.729Z,22.90
2022-07-30T01:07:18.457Z,22.90
2022-07-30T01:12:27.015Z,22.80
2022-07-30T01:17:30.816Z,22.80
2022-07-30T01:22:46.725Z,22.80
2022-07-30T01:27:55.114Z,22.80
2022-07-30T01:32:59.992Z,22.80
2022-07-30T01:38:05.228Z,22.80
2022-07-30T01:43:11.222Z,22.80
2022-07-30T01:48:17.630Z,22.80
2022-07-30T01:53:26.260Z,22.70
2022-07-30T01:58:36.653Z,22.70
2022-07-30T02:03:40.382Z,22.70
2022-07-30T02:08:46.981Z,22.70
2022-07-30T02:13:55.704Z,22.80
2022-07-30T02:19:06.899Z,22.70
2022-07-30T02:24:14.914Z,22.70
2022-07-30T02:29:22.158Z,22.70
2022-07-30T02:34:27.585Z,22.70
2022-07-30T02:39:32.750Z,22.70
2022-07-30T02:44:39.718Z,22.70
2022-07-30T02:49:45.547Z,22.70
2022-07-30T02:54:49.940Z,22.70
2022-07-30T02:59:55.989Z,22.60
2022-07-30T03:05:01.387Z,22.70
2022-07-30T03:10:06.306Z,22.60
2022-07-30T03:15:12.561Z,22.60
2022-07-30T03:20:19.345Z,22.50
2022-07-30T03:25:25.594Z,22.50
2022-07-30T03:30:30.865Z,22.60
2022-07-30T03:35:35.491Z,22.50
2022-07-30T03:40:39.251Z,22.50
2022-07-30T03:45:45.834Z,22.50
2022-07-30T03:50:50.766Z,22.50
2022-07-30T03:55:56.129Z,22.50
2022-07-30T04:01:01.200Z,22.50
2022-07-30T04:06:04.690Z,22.50
2022-07-30T04:11:08.047Z,22.50
2022-07-30T04:16:39.313Z,22.40
2022-07-30T04:21:43.957Z,22.50
2022-07-30T04:26:48.726Z,22.50
2022-07-30T04:31:54.648Z,22.50
2022-07-30T04:36:58.254Z,22.50
2022-07-30T04:42:01.758Z,22.50
2022-07-30T04:47:06.906Z,22.50
2022-07-30T04:52:12.433Z,22.50
2022-07-30T04:57:18.094Z,22.50
2022-07-30T05:02:25.589Z,22.50
2022-07-30T05:07:29.887Z,22.50
2022-07-30T05:12:37.592Z,22.50
2022-07-30T05:17:42.420Z,22.60
2022-07-30T05:22:51.158Z,22.60
2022-07-30T05:27:56.780Z,22.60
2022-07-30T05:33:03.751Z,22.60
2022-07-30T05:38:15.932Z,22.70
2022-07-30T05:43:19.276Z,22.70
2022-07-30T05:48:23.993Z,22.70
2022-07-30T05:53:27.401Z,22.80
2022-07-30T05:58:30.746Z,22.80
2022-07-30T06:03:35.772Z,22.80
2022-07-30T06:08:39.186Z,22.80
2022-07-30T06:13:44.516Z,22.90
2022-07-30T06:18:49.417Z,22.90
2022-07-30T06:23:52.836Z,22.90
2022-07-30T06:28:56.260Z,22.90
2022-07-30T06:34:00.963Z,23.00
2022-07-30T06:39:04.823Z,23.00
2022-07-30T06:44:08.170Z,23.00
2022-07-30T06:49:13.003Z,23.00
2022-07-30T06:54:16.708Z,23.10
2022-07-30T06:59:20.378Z,23.10
2022-07-30T07:04:25.409Z,23.10
2022-07-30T07:09:28.777Z,23.10
2022-07-30T07:14:33.289Z,23.20
2022-07-30T07:19:39.729Z,23.20
2022-07-30T07:25:02.159Z,23.30
2022-07-30T07:30:07.384Z,23.40
2022-07-30T07:35:13.818Z,23.40
2022-07-30T07:40:17.300Z,23.50
2022-07-30T07:45:20.833Z,23.60
2022-07-30T07:50:25.615Z,23.60
2022-07-30T07:55:29.167Z,23.70
2022-07-30T08:00:36.469Z,23.70
2022-07-30T08:06:02.080Z,23.80
2022-07-30T08:11:06.426Z,23.80
2022-07-30T08:16:12.677Z,23.80
2022-07-30T08:21:17.866Z,23.90
2022-07-30T08:26:22.007Z,23.90
2022-07-30T08:31:25.779Z,23.90
2022-07-30T08:36:30.486Z,24.00
2022-07-30T08:41:34.643Z,24.00
2022-07-30T08:46:41.740Z,24.00
2022-07-30T08:51:52.644Z,23.90
2022-07-30T08:56:56.456Z,23.80
2022-07-30T09:02:00.506Z,23.60
2022-07-30T09:07:05.814Z,23.50
2022-07-30T09:12:37.824Z,23.50
2022-07-30T09:17:52.987Z,23.40
2022-07-30T09:23:01.908Z,23.40
2022-07-30T09:28:11.147Z,23.30
2022-07-30T09:33:35.181Z,23.30
2022-07-30T09:38:46.233Z,23.30
2022-07-30T09:43:51.804Z,23.20
2022-07-30T09:49:15.730Z,23.10
2022-07-30T09:54:20.831Z,23.00
2022-07-30T09:59:28.449Z,22.90
2022-07-30T10:04:40.381Z,22.70
2022-07-30T10:09:47.033Z,22.70
2022-07-30T10:14:53.187Z,22.60
2022-07-30T10:25:20.904Z,22.40
2022-07-30T10:30:29.293Z,22.40
2022-07-30T10:35:37.868Z,22.30
2022-07-30T10:40:50.624Z,22.20
2022-07-30T10:46:05.095Z,22.10
2022-07-30T10:51:13.135Z,22.00
2022-07-30T10:56:30.474Z,21.90
2022-07-30T11:02:11.405Z,22.00
2022-07-30T11:07:31.350Z,22.00
2022-07-30T11:12:57.489Z,22.00
2022-07-30T11:18:04.400Z,22.20
2022-07-30T11:23:35.586Z,22.10
2022-07-30T11:28:42.801Z,22.00
2022-07-30T11:33:46.453Z,22.00
2022-07-30T11:39:06.774Z,22.00
2022-07-30T11:44:31.975Z,22.10
2022-07-30T11:49:38.386Z,22.20
2022-07-30T11:54:53.529Z,22.20
2022-07-30T11:59:58.609Z,22.20
2022-07-30T12:05:02.110Z,22.10
2022-07-30T12:10:16.334Z,22.10
2022-07-30T12:15:35.140Z,22.10
2022-07-30T12:20:39.073Z,21.90
2022-07-30T12:25:47.566Z,21.90
2022-07-30T12:30:53.305Z,21.90
2022-07-30T12:35:58.309Z,21.90
2022-07-30T12:41:04.747Z,21.80
2022-07-30T12:46:13.166Z,21.80
2022-07-30T12:51:18.765Z,21.80
2022-07-30T12:56:24.824Z,21.80
2022-07-30T13:01:43.081Z,21.70
2022-07-30T13:07:03.901Z,21.70
2022-07-30T13:12:10.138Z,21.70
2022-07-30T13:17:15.193Z,21.60
2022-07-30T13:22:18.817Z,21.70
2022-07-30T13:27:22.416Z,21.60
2022-07-30T13:32:27.056Z,21.70
2022-07-30T13:37:37.673Z,21.60
2022-07-30T13:42:42.409Z,21.50
2022-07-30T13:47:48.481Z,21.60
2022-07-30T13:52:52.192Z,21.50
2022-07-30T13:57:55.492Z,21.50
2022-07-30T14:03:00.830Z,21.40
2022-07-30T14:08:05.332Z,21.30
2022-07-30T14:13:10.328Z,21.20
2022-07-30T14:18:19.627Z,21.10
2022-07-30T14:23:23.002Z,21.00
2022-07-30T14:28:26.678Z,20.90
2022-07-30T14:33:31.486Z,20.90
2022-07-30T14:38:36.342Z,21.00
2022-07-30T14:43:39.731Z,20.90
2022-07-30T14:48:44.625Z,21.00
2022-07-30T14:53:48.116Z,21.00
2022-07-30T14:58:51.662Z,21.00
2022-07-30T15:03:56.548Z,21.00
2022-07-30T15:09:00.575Z,21.00
2022-07-30T15:14:04.426Z,21.00
2022-07-30T15:19:09.841Z,21.10
2022-07-30T15:24:13.564Z,21.10
2022-07-30T15:29:17.150Z,21.10
2022-07-30T15:34:22.532Z,21.10
2022-07-30T15:39:28.305Z,21.10
2022-07-30T15:44:32.269Z,21.00
2022-07-30T15:49:37.139Z,21.00
2022-07-30T16:00:19.197Z,20.80
2022-07-30T16:11:11.272Z,20.70
2022-07-30T16:16:15.321Z,20.60
2022-07-30T16:21:19.583Z,20.50
2022-07-30T16:26:24.367Z,20.40
2022-07-30T16:31:27.726Z,20.40
2022-07-30T16:36:31.273Z,20.30
2022-07-30T16:41:36.623Z,20.20
2022-07-30T16:46:40.519Z,20.20
2022-07-30T16:51:47.037Z,20.10
2022-07-30T16:56:52.858Z,20.10
2022-07-30T17:01:58.002Z,20.10
2022-07-30T17:07:01.764Z,20.00
2022-07-30T17:12:11.834Z,19.90
2022-07-30T17:17:16.129Z,20.00
2022-07-30T17:22:19.905Z,19.90
2022-07-30T17:27:26.710Z,19.90
2022-07-30T17:32:30.459Z,19.90
2022-07-30T17:37:34.075Z,19.80
2022-07-30T17:42:40.065Z,19.70
2022-07-30T17:47:43.406Z,19.70
2022-07-30T17:52:47.437Z,19.70
2022-07-30T17:57:54.827Z,19.70
2022-07-30T18:02:59.250Z,19.70
2022-07-30T18:08:03.680Z,19.70
2022-07-30T18:13:26.455Z,19.60
2022-07-30T18:18:31.261Z,19.60
2022-07-30T18:23:35.283Z,19.60
2022-07-30T18:28:40.034Z,19.50
2022-07-30T18:33:43.408Z,19.50
2022-07-30T18:38:49.819Z,19.50
2022-07-30T18:43:56.157Z,19.50
2022-07-30T18:49:10.791Z,19.50
2022-07-30T18:54:23.883Z,19.50
2022-07-30T18:59:28.658Z,19.50
2022-07-30T19:04:32.304Z,19.60
2022-07-30T19:09:36.217Z,19.50
2022-07-30T19:14:41.273Z,19.50
2022-07-30T19:19:45.190Z,19.50
2022-07-30T19:24:49.068Z,19.50
2022-07-30T19:29:53.818Z,19.40
2022-07-30T19:34:57.477Z,19.40
2022-07-30T19:40:06.006Z,19.40
2022-07-30T19:45:27.091Z,19.30
2022-07-30T19:50:51.010Z,19.30
2022-07-30T19:55:54.680Z,19.30
2022-07-30T20:01:00.426Z,19.20
2022-07-30T20:06:07.219Z,19.20
2022-07-30T20:11:10.882Z,19.20
2022-07-30T20:16:21.421Z,19.10
2022-07-30T20:22:06.815Z,19.10
2022-07-30T20:26:48.416Z,19.10
2022-07-30T20:31:53.418Z,19.00
2022-07-30T20:36:56.875Z,19.00
2022-07-30T20:42:09.086Z,19.00
2022-07-30T20:52:46.993Z,18.90
2022-07-30T20:58:01.175Z,18.90
2022-07-30T21:03:17.206Z,18.80
2022-07-30T21:08:25.222Z,18.80
2022-07-30T21:13:29.372Z,18.80
2022-07-30T21:18:37.099Z,18.80
2022-07-30T21:23:40.505Z,18.80
2022-07-30T21:28:43.860Z,18.70
2022-07-30T21:33:48.902Z,18.70
2022-07-30T21:38:52.274Z,18.70
2022-07-30T21:43:56.070Z,18.60
2022-07-30T21:49:01.744Z,18.60
2022-07-30T21:54:07.030Z,18.50
2022-07-30T21:59:10.780Z,18.60
2022-07-30T22:04:16.632Z,18.40
2022-07-30T22:09:34.242Z,18.40
2022-07-30T22:14:38.450Z,18.40
2022-07-30T22:19:43.251Z,18.30
2022-07-30T22:24:47.343Z,18.20
2022-07-30T22:29:50.921Z,18.20
2022-07-30T22:35:00.409Z,18.20
2022-07-30T22:40:06.678Z,18.20
2022-07-30T22:45:10.797Z,18.10
2022-07-30T22:50:26.082Z,18.10
2022-07-30T22:55:29.852Z,18.20
2022-07-30T23:00:33.380Z,18.20
2022-07-30T23:05:39.994Z,18.20
2022-07-30T23:10:46.440Z,18.20
2022-07-30T23:12:18.531Z,18.90
2022-07-30T23:15:50.258Z,18.30
2022-07-30T23:20:58.491Z,18.30
2022-07-30T23:26:06.259Z,18.30
2022-07-30T23:31:09.671Z,18.30
2022-07-30T23:36:14.402Z,18.30
2022-07-30T23:41:30.687Z,18.30
2022-07-30T23:46:34.408Z,18.30
2022-07-30T23:51:39.497Z,18.30
2022-07-30T23:56:42.895Z,18.30
